createdAt,value
2017-11-29T00:02:00.384Z,26.80
2017-11-29T00:04:27.978Z,28.30
2017-11-29T00:06:56.545Z,26.45
2017-11-29T00:09:24.432Z,26.42
2017-11-29T00:11:52.873Z,28.87
2017-11-29T00:14:20.402Z,27.48
2017-11-29T00:16:47.995Z,29.27
2017-11-29T00:19:15.540Z,28.50
2017-11-29T00:21:43.097Z,28.38
2017-11-29T00:24:10.681Z,31.13
2017-11-29T00:26:38.959Z,32.08
2017-11-29T00:29:06.535Z,28.70
2017-11-29T00:31:34.876Z,26.10
2017-11-29T00:34:02.454Z,25.83
2017-11-29T00:36:30.050Z,31.80
2017-11-29T00:38:58.370Z,28.90
2017-11-29T00:41:25.897Z,28.53
2017-11-29T00:43:54.206Z,28.00
2017-11-29T00:46:21.741Z,24.67
2017-11-29T00:48:49.291Z,24.80
2017-11-29T00:51:16.857Z,22.57
2017-11-29T00:53:44.443Z,24.83
2017-11-29T00:56:12.034Z,22.30
2017-11-29T00:58:39.583Z,19.20
2017-11-29T01:01:08.059Z,20.75
2017-11-29T01:03:35.608Z,19.30
2017-11-29T01:06:03.180Z,18.90
2017-11-29T01:08:30.753Z,18.80
2017-11-29T01:10:59.066Z,16.60
2017-11-29T01:13:27.735Z,24.58
2017-11-29T01:15:56.071Z,15.85
2017-11-29T01:18:24.430Z,17.70
2017-11-29T01:20:51.972Z,19.70
2017-11-29T01:23:19.519Z,22.13
2017-11-29T01:25:47.113Z,26.67
2017-11-29T01:28:15.379Z,26.17
2017-11-29T01:30:43.015Z,24.70
2017-11-29T01:33:11.328Z,21.10
2017-11-29T01:35:39.437Z,19.30
2017-11-29T01:38:07.012Z,20.15
2017-11-29T01:40:35.330Z,18.08
2017-11-29T01:43:02.868Z,18.83
2017-11-29T01:45:32.430Z,19.50
2017-11-29T01:48:07.141Z,18.83
2017-11-29T01:50:34.703Z,20.43
2017-11-29T01:53:03.025Z,26.67
2017-11-29T01:55:31.389Z,23.85
2017-11-29T01:58:00.214Z,25.00
2017-11-29T02:00:27.815Z,30.35
2017-11-29T02:02:56.301Z,32.05
2017-11-29T02:05:23.814Z,33.05
2017-11-29T02:07:51.422Z,24.63
2017-11-29T02:10:19.140Z,25.37
2017-11-29T02:12:46.739Z,24.12
2017-11-29T02:15:14.293Z,28.65
2017-11-29T02:17:41.807Z,24.50
2017-11-29T02:20:09.407Z,26.62
2017-11-29T02:22:37.841Z,30.08
2017-11-29T02:25:07.723Z,36.50
2017-11-29T02:27:36.089Z,35.92
2017-11-29T02:30:04.553Z,31.50
2017-11-29T02:32:32.104Z,32.95
2017-11-29T02:35:00.923Z,32.05
2017-11-29T02:37:28.476Z,35.75
2017-11-29T02:40:08.099Z,29.30
2017-11-29T02:42:37.494Z,30.15
2017-11-29T02:45:05.047Z,32.22
2017-11-29T02:47:32.664Z,32.05
2017-11-29T02:50:00.259Z,33.70
2017-11-29T02:52:27.793Z,31.20
2017-11-29T02:54:56.110Z,31.60
2017-11-29T02:57:23.697Z,32.13
2017-11-29T02:59:51.281Z,30.70
2017-11-29T03:02:19.814Z,18.95
2017-11-29T03:04:47.353Z,19.42
2017-11-29T03:07:14.894Z,23.00
2017-11-29T03:09:43.261Z,23.12
2017-11-29T03:12:11.620Z,21.95
2017-11-29T03:14:39.169Z,21.33
2017-11-29T03:17:06.731Z,18.27
2017-11-29T03:19:34.265Z,22.55
2017-11-29T03:22:01.824Z,12.85
2017-11-29T03:24:29.376Z,12.45
2017-11-29T03:26:56.944Z,12.90
2017-11-29T03:29:24.482Z,11.77
2017-11-29T03:31:52.035Z,10.48
2017-11-29T03:34:19.576Z,6.95
2017-11-29T03:36:47.865Z,5.37
2017-11-29T03:39:16.153Z,7.00
2017-11-29T03:41:43.683Z,5.28
2017-11-29T03:44:12.017Z,6.30
2017-11-29T03:46:40.400Z,4.47
2017-11-29T03:49:07.933Z,4.30
2017-11-29T03:51:35.487Z,6.32
2017-11-29T03:54:03.022Z,6.00
2017-11-29T03:56:31.352Z,5.20
2017-11-29T03:58:58.892Z,6.72
2017-11-29T04:01:26.452Z,5.63
2017-11-29T04:03:54.000Z,7.37
2017-11-29T04:06:21.546Z,7.47
2017-11-29T04:08:49.116Z,7.68
2017-11-29T04:11:16.644Z,10.27
2017-11-29T04:13:44.205Z,8.50
2017-11-29T04:16:12.537Z,9.20
2017-11-29T04:18:40.076Z,11.45
2017-11-29T04:21:07.624Z,10.30
2017-11-29T04:23:35.164Z,8.38
2017-11-29T04:26:03.492Z,8.77
2017-11-29T04:28:31.037Z,10.48
2017-11-29T04:30:58.599Z,11.68
2017-11-29T04:33:26.168Z,12.95
2017-11-29T04:35:53.719Z,10.63
2017-11-29T04:38:21.250Z,10.55
2017-11-29T04:40:48.798Z,12.15
2017-11-29T04:43:17.093Z,14.23
2017-11-29T04:45:44.621Z,14.60
2017-11-29T04:48:12.176Z,13.95
2017-11-29T04:50:39.714Z,14.65
2017-11-29T04:53:07.282Z,14.30
2017-11-29T04:55:34.875Z,14.07
2017-11-29T04:58:03.225Z,12.75
2017-11-29T05:00:30.795Z,14.38
2017-11-29T05:02:59.084Z,10.32
2017-11-29T05:05:27.417Z,11.80
2017-11-29T05:07:54.990Z,12.10
2017-11-29T05:10:22.538Z,13.05
2017-11-29T05:12:50.075Z,11.82
2017-11-29T05:15:17.609Z,12.65
2017-11-29T05:17:45.921Z,13.70
2017-11-29T05:20:13.514Z,15.40
2017-11-29T05:22:43.092Z,13.98
2017-11-29T05:25:10.688Z,14.87
2017-11-29T05:27:39.019Z,18.60
2017-11-29T05:30:06.556Z,19.12
2017-11-29T05:32:34.102Z,18.17
2017-11-29T05:35:01.683Z,21.77
2017-11-29T05:37:30.092Z,21.60
2017-11-29T05:39:57.632Z,21.20
2017-11-29T05:42:25.183Z,21.10
2017-11-29T05:44:52.709Z,25.65
2017-11-29T05:47:21.401Z,26.75
2017-11-29T05:49:48.952Z,25.45
2017-11-29T05:52:17.279Z,25.58
2017-11-29T05:54:44.821Z,26.17
2017-11-29T05:57:12.396Z,25.37
2017-11-29T05:59:39.967Z,28.75
2017-11-29T06:02:07.684Z,30.15
2017-11-29T06:04:35.242Z,25.37
2017-11-29T06:07:02.832Z,26.58
2017-11-29T06:09:30.412Z,27.85
2017-11-29T06:11:59.231Z,25.50
2017-11-29T06:14:27.584Z,24.23
2017-11-29T06:16:55.191Z,26.95
2017-11-29T06:19:22.727Z,26.35
2017-11-29T06:21:52.309Z,24.42
2017-11-29T06:24:19.799Z,26.65
2017-11-29T06:26:48.168Z,26.85
2017-11-29T06:29:16.397Z,25.77
2017-11-29T06:31:45.554Z,28.42
2017-11-29T06:34:13.857Z,27.60
2017-11-29T06:36:41.421Z,25.15
2017-11-29T06:39:08.956Z,26.55
2017-11-29T06:41:36.582Z,26.60
2017-11-29T06:44:04.098Z,25.12
2017-11-29T06:46:31.607Z,27.70
2017-11-29T06:48:59.935Z,28.38
2017-11-29T06:51:27.527Z,27.25
2017-11-29T06:53:55.095Z,28.70
2017-11-29T06:56:22.665Z,25.35
2017-11-29T06:58:50.981Z,24.90
2017-11-29T07:01:18.521Z,24.40
2017-11-29T07:03:46.084Z,25.52
2017-11-29T07:06:13.640Z,23.90
2017-11-29T07:08:41.151Z,25.45
2017-11-29T07:11:08.745Z,23.00
2017-11-29T07:13:37.069Z,22.23
2017-11-29T07:16:04.644Z,21.52
2017-11-29T07:18:32.213Z,20.02
2017-11-29T07:20:59.785Z,19.90
2017-11-29T07:23:28.174Z,21.08
2017-11-29T07:25:55.802Z,21.10
2017-11-29T07:28:23.410Z,21.27
2017-11-29T18:17:49.740Z,16.30
2017-11-29T18:20:18.002Z,14.85
2017-11-29T18:22:46.424Z,15.85
2017-11-29T18:25:14.729Z,18.00
2017-11-29T18:27:42.990Z,18.58
2017-11-29T18:30:11.252Z,21.73
2017-11-29T18:32:40.279Z,16.20
2017-11-29T18:35:08.565Z,18.10
2017-11-29T18:37:36.900Z,17.70
2017-11-29T18:40:05.199Z,18.30
2017-11-29T18:42:33.455Z,19.30
2017-11-29T18:45:02.479Z,20.73
2017-11-29T18:47:30.731Z,18.15
2017-11-29T18:49:58.998Z,17.50
2017-11-29T18:52:27.316Z,17.23
2017-11-29T18:54:55.583Z,17.90
2017-11-29T18:57:23.843Z,17.08
2017-11-29T18:59:52.106Z,17.30
2017-11-29T19:02:20.384Z,15.20
2017-11-29T19:04:48.659Z,17.55
2017-11-29T19:07:17.666Z,18.02
2017-11-29T19:09:45.935Z,15.52
2017-11-29T19:12:14.192Z,15.98
2017-11-29T19:14:43.223Z,15.50
2017-11-29T19:17:11.481Z,15.77
2017-11-29T19:19:39.740Z,15.18
2017-11-29T19:22:08.764Z,18.45
2017-11-29T19:24:37.011Z,13.40
2017-11-29T19:27:05.373Z,15.50
2017-11-29T19:29:34.403Z,14.02
2017-11-29T19:32:02.675Z,14.73
2017-11-29T19:34:31.576Z,14.68
2017-11-29T19:36:59.844Z,13.95
2017-11-29T19:39:30.063Z,15.32
2017-11-29T19:41:58.348Z,14.10
2017-11-29T19:44:27.370Z,13.48
2017-11-29T19:47:09.204Z,15.77
2017-11-29T19:49:39.382Z,15.73
2017-11-29T19:52:07.672Z,14.20
2017-11-29T19:54:35.927Z,15.30
2017-11-29T19:57:04.199Z,17.55
2017-11-29T19:59:32.475Z,21.25
2017-11-29T20:02:00.734Z,23.58
2017-11-29T20:04:28.983Z,27.90
2017-11-29T20:07:05.163Z,23.90
2017-11-29T20:09:33.606Z,26.83
2017-11-29T20:12:02.003Z,25.40
2017-11-29T20:14:31.111Z,25.80
2017-11-29T20:16:59.385Z,27.65
2017-11-29T20:19:27.645Z,29.67
2017-11-29T20:21:57.009Z,41.20
2017-11-29T20:24:25.343Z,42.15
2017-11-29T20:26:53.768Z,49.50
2017-11-29T20:29:22.147Z,46.15
2017-11-29T20:31:50.551Z,43.53
2017-11-29T20:34:19.669Z,45.33
2017-11-29T20:36:48.065Z,42.25
2017-11-29T20:39:16.463Z,42.10
2017-11-29T20:41:44.820Z,38.83
2017-11-29T20:44:13.177Z,41.33
2017-11-29T20:46:41.533Z,42.83
2017-11-29T20:49:10.657Z,36.78
2017-11-29T20:51:38.979Z,37.58
2017-11-29T20:54:07.242Z,44.88
2017-11-29T20:56:35.507Z,39.60
2017-11-29T20:59:03.771Z,39.10
2017-11-29T21:01:32.089Z,37.58
2017-11-29T21:04:00.359Z,43.30
2017-11-29T21:06:28.624Z,48.65
2017-11-29T21:08:57.052Z,39.60
2017-11-29T21:11:26.291Z,40.30
2017-11-29T21:13:54.556Z,41.28
2017-11-29T21:16:22.826Z,43.58
2017-11-29T21:18:51.146Z,45.58
2017-11-29T21:21:19.407Z,38.83
2017-11-29T21:23:47.681Z,38.25
2017-11-29T21:26:16.026Z,44.65
2017-11-29T21:28:44.305Z,45.28
2017-11-29T21:31:12.572Z,45.25
2017-11-29T21:33:41.617Z,49.17
2017-11-29T21:36:09.879Z,44.55
2017-11-29T21:38:38.134Z,39.83
2017-11-29T21:41:06.603Z,39.13
2017-11-29T21:43:34.859Z,43.75
2017-11-29T21:46:03.893Z,43.65
2017-11-29T21:48:32.150Z,46.88
2017-11-29T21:51:00.421Z,43.65
2017-11-29T21:53:28.685Z,40.97
2017-11-29T21:55:57.712Z,44.08
2017-11-29T21:58:25.972Z,32.33
2017-11-29T22:00:54.243Z,36.75
2017-11-29T22:03:22.508Z,37.50
2017-11-29T22:05:51.579Z,40.22
2017-11-29T22:08:19.847Z,39.75
2017-11-29T22:10:48.108Z,39.40
2017-11-29T22:13:16.384Z,36.92
2017-11-29T22:15:44.679Z,38.30
2017-11-29T22:18:12.879Z,31.60
2017-11-29T22:20:41.918Z,33.83
2017-11-29T22:23:10.166Z,31.73
2017-11-29T22:25:38.437Z,32.90
2017-11-29T22:28:06.730Z,34.40
2017-11-29T22:30:35.809Z,31.58
2017-11-29T22:33:04.834Z,30.30
2017-11-29T22:35:33.109Z,26.15
2017-11-29T22:38:01.363Z,25.00
2017-11-29T22:40:29.631Z,24.10
2017-11-29T22:42:57.890Z,20.35
2017-11-29T22:45:26.926Z,18.65
2017-11-29T22:47:55.183Z,18.25
2017-11-29T22:50:23.439Z,14.07
2017-11-29T22:52:52.476Z,15.45
2017-11-29T22:55:20.735Z,13.62
2017-11-29T22:57:49.036Z,14.40
2017-11-29T23:00:28.091Z,14.30
2017-11-29T23:02:56.359Z,16.62
2017-11-29T23:05:24.625Z,17.98
2017-11-29T23:07:52.902Z,18.40
2017-11-29T23:10:21.157Z,18.35
2017-11-29T23:12:49.442Z,19.17
2017-11-29T23:15:17.731Z,20.05
2017-11-29T23:17:46.079Z,21.00
2017-11-29T23:20:14.377Z,25.10
2017-11-29T23:22:42.711Z,20.55
2017-11-29T23:25:11.034Z,25.27
2017-11-29T23:27:39.370Z,21.55
2017-11-29T23:30:07.716Z,10.70
2017-11-29T23:32:36.801Z,18.52
2017-11-29T23:35:05.140Z,24.20
2017-11-29T23:37:33.475Z,26.30
2017-11-29T23:40:01.817Z,28.25
2017-11-29T23:42:30.201Z,26.58
2017-11-29T23:44:58.516Z,32.13
2017-11-29T23:47:27.639Z,33.20
2017-11-29T23:49:55.951Z,22.02
2017-11-29T23:52:24.247Z,27.17
2017-11-29T23:54:53.372Z,27.67
2017-11-29T23:57:21.636Z,18.08
2017-11-29T23:59:50.722Z,16.87
